sensor_id;sensor_type;location;lat;lon;timestamp;temperature;humidity
16532;DHT22;66872;63.142;14.482;2023-09-19T00:00:20;16.70;48.20
16532;DHT22;66872;63.142;14.482;2023-09-19T00:02:53;16.70;48.20
16532;DHT22;66872;63.142;14.482;2023-09-19T00:05:19;16.70;48.20
16532;DHT22;66872;63.142;14.482;2023-09-19T00:07:52;16.70;48.20
16532;DHT22;66872;63.142;14.482;2023-09-19T00:10:21;16.70;48.20
16532;DHT22;66872;63.142;14.482;2023-09-19T00:12:47;16.70;48.20
16532;DHT22;66872;63.142;14.482;2023-09-19T00:15:13;16.70;48.20
16532;DHT22;66872;63.142;14.482;2023-09-19T00:17:43;16.70;48.20
16532;DHT22;66872;63.142;14.482;2023-09-19T00:20:09;16.70;48.20
16532;DHT22;66872;63.142;14.482;2023-09-19T00:22:41;16.70;48.20
16532;DHT22;66872;63.142;14.482;2023-09-19T00:25:11;16.70;48.20
16532;DHT22;66872;63.142;14.482;2023-09-19T00:27:38;16.70;48.30
16532;DHT22;66872;63.142;14.482;2023-09-19T00:30:09;16.70;48.30
16532;DHT22;66872;63.142;14.482;2023-09-19T00:32:40;16.70;48.30
16532;DHT22;66872;63.142;14.482;2023-09-19T00:35:06;16.70;48.30
16532;DHT22;66872;63.142;14.482;2023-09-19T00:37:34;16.70;48.30
16532;DHT22;66872;63.142;14.482;2023-09-19T00:40:01;16.70;48.30
16532;DHT22;66872;63.142;14.482;2023-09-19T00:42:27;16.70;48.30
16532;DHT22;66872;63.142;14.482;2023-09-19T00:44:53;16.70;48.30
16532;DHT22;66872;63.142;14.482;2023-09-19T00:47:19;16.70;48.30
16532;DHT22;66872;63.142;14.482;2023-09-19T00:49:45;16.70;48.30
16532;DHT22;66872;63.142;14.482;2023-09-19T00:52:15;16.60;48.20
16532;DHT22;66872;63.142;14.482;2023-09-19T00:54:41;16.70;48.30
16532;DHT22;66872;63.142;14.482;2023-09-19T00:57:07;16.70;48.30
16532;DHT22;66872;63.142;14.482;2023-09-19T00:59:34;16.70;48.30
16532;DHT22;66872;63.142;14.482;2023-09-19T01:02:02;16.70;48.30
16532;DHT22;66872;63.142;14.482;2023-09-19T01:04:28;16.70;48.40
16532;DHT22;66872;63.142;14.482;2023-09-19T01:06:54;16.70;48.30
16532;DHT22;66872;63.142;14.482;2023-09-19T01:09:20;16.60;48.30
16532;DHT22;66872;63.142;14.482;2023-09-19T01:11:48;16.70;48.40
16532;DHT22;66872;63.142;14.482;2023-09-19T01:14:44;16.70;48.40
16532;DHT22;66872;63.142;14.482;2023-09-19T01:17:27;16.70;48.40
16532;DHT22;66872;63.142;14.482;2023-09-19T01:20:00;16.70;48.40
16532;DHT22;66872;63.142;14.482;2023-09-19T01:22:56;16.70;48.40
16532;DHT22;66872;63.142;14.482;2023-09-19T01:30:57;16.60;48.30
16532;DHT22;66872;63.142;14.482;2023-09-19T01:33:24;16.60;48.40
16532;DHT22;66872;63.142;14.482;2023-09-19T01:35:51;16.60;48.40
16532;DHT22;66872;63.142;14.482;2023-09-19T01:38:19;16.60;48.40
16532;DHT22;66872;63.142;14.482;2023-09-19T01:41:12;16.60;48.40
16532;DHT22;66872;63.142;14.482;2023-09-19T01:43:43;16.60;48.40
16532;DHT22;66872;63.142;14.482;2023-09-19T01:46:16;16.60;48.40
16532;DHT22;66872;63.142;14.482;2023-09-19T01:54:40;16.60;48.50
16532;DHT22;66872;63.142;14.482;2023-09-19T01:57:27;16.60;48.50
16532;DHT22;66872;63.142;14.482;2023-09-19T02:00:03;16.60;48.50
16532;DHT22;66872;63.142;14.482;2023-09-19T02:02:37;16.60;48.50
16532;DHT22;66872;63.142;14.482;2023-09-19T02:05:04;16.60;48.50
16532;DHT22;66872;63.142;14.482;2023-09-19T02:07:30;16.60;48.50
16532;DHT22;66872;63.142;14.482;2023-09-19T02:09:59;16.60;48.50
16532;DHT22;66872;63.142;14.482;2023-09-19T02:12:30;16.60;48.50
16532;DHT22;66872;63.142;14.482;2023-09-19T02:14:58;16.60;48.50
16532;DHT22;66872;63.142;14.482;2023-09-19T02:17:24;16.60;48.50
16532;DHT22;66872;63.142;14.482;2023-09-19T02:19:54;16.60;48.50
16532;DHT22;66872;63.142;14.482;2023-09-19T02:22:23;16.60;48.50
16532;DHT22;66872;63.142;14.482;2023-09-19T02:24:50;16.60;48.50
16532;DHT22;66872;63.142;14.482;2023-09-19T02:27:16;16.60;48.50
16532;DHT22;66872;63.142;14.482;2023-09-19T02:29:43;16.60;48.50
16532;DHT22;66872;63.142;14.482;2023-09-19T02:32:08;16.60;48.50
16532;DHT22;66872;63.142;14.482;2023-09-19T02:34:37;16.60;48.50
16532;DHT22;66872;63.142;14.482;2023-09-19T02:37:04;16.60;48.50
16532;DHT22;66872;63.142;14.482;2023-09-19T02:39:31;16.60;48.50
16532;DHT22;66872;63.142;14.482;2023-09-19T02:41:56;16.60;48.50
16532;DHT22;66872;63.142;14.482;2023-09-19T02:44:22;16.60;48.50
16532;DHT22;66872;63.142;14.482;2023-09-19T02:46:49;16.60;48.60
16532;DHT22;66872;63.142;14.482;2023-09-19T02:49:15;16.60;48.50
16532;DHT22;66872;63.142;14.482;2023-09-19T02:51:40;16.60;48.50
16532;DHT22;66872;63.142;14.482;2023-09-19T02:54:07;16.60;48.50
16532;DHT22;66872;63.142;14.482;2023-09-19T02:56:33;16.60;48.50
16532;DHT22;66872;63.142;14.482;2023-09-19T02:58:59;16.60;48.50
16532;DHT22;66872;63.142;14.482;2023-09-19T03:01:26;16.60;48.50
16532;DHT22;66872;63.142;14.482;2023-09-19T03:03:53;16.60;48.50
16532;DHT22;66872;63.142;14.482;2023-09-19T03:06:19;16.60;48.50
16532;DHT22;66872;63.142;14.482;2023-09-19T03:08:45;16.60;48.50
16532;DHT22;66872;63.142;14.482;2023-09-19T03:11:12;16.60;48.50
16532;DHT22;66872;63.142;14.482;2023-09-19T03:13:40;16.60;48.50
16532;DHT22;66872;63.142;14.482;2023-09-19T03:16:07;16.60;48.50
16532;DHT22;66872;63.142;14.482;2023-09-19T03:18:36;16.60;48.50
16532;DHT22;66872;63.142;14.482;2023-09-19T03:21:02;16.60;48.60
16532;DHT22;66872;63.142;14.482;2023-09-19T03:23:28;16.60;48.50
16532;DHT22;66872;63.142;14.482;2023-09-19T03:25:55;16.60;48.50
16532;DHT22;66872;63.142;14.482;2023-09-19T03:28:22;16.60;48.50
16532;DHT22;66872;63.142;14.482;2023-09-19T03:31:05;16.60;48.50
16532;DHT22;66872;63.142;14.482;2023-09-19T03:33:31;16.60;48.60
16532;DHT22;66872;63.142;14.482;2023-09-19T03:35:58;16.60;48.60
16532;DHT22;66872;63.142;14.482;2023-09-19T03:38:25;16.60;48.60
16532;DHT22;66872;63.142;14.482;2023-09-19T03:40:51;16.60;48.60
16532;DHT22;66872;63.142;14.482;2023-09-19T03:43:16;16.60;48.60
16532;DHT22;66872;63.142;14.482;2023-09-19T03:45:42;16.60;48.60
16532;DHT22;66872;63.142;14.482;2023-09-19T03:48:12;16.60;48.60
16532;DHT22;66872;63.142;14.482;2023-09-19T03:50:38;16.60;48.60
16532;DHT22;66872;63.142;14.482;2023-09-19T03:53:03;16.60;48.60
16532;DHT22;66872;63.142;14.482;2023-09-19T03:55:29;16.60;48.60
16532;DHT22;66872;63.142;14.482;2023-09-19T03:57:56;16.60;48.60
16532;DHT22;66872;63.142;14.482;2023-09-19T04:00:22;16.60;48.60
16532;DHT22;66872;63.142;14.482;2023-09-19T04:02:52;16.60;48.60
16532;DHT22;66872;63.142;14.482;2023-09-19T04:05:18;16.60;48.60
16532;DHT22;66872;63.142;14.482;2023-09-19T04:07:44;16.60;48.60
16532;DHT22;66872;63.142;14.482;2023-09-19T04:10:10;16.60;48.60
16532;DHT22;66872;63.142;14.482;2023-09-19T04:12:40;16.60;48.60
16532;DHT22;66872;63.142;14.482;2023-09-19T04:15:06;16.60;48.60
16532;DHT22;66872;63.142;14.482;2023-09-19T04:17:32;16.60;48.60
16532;DHT22;66872;63.142;14.482;2023-09-19T04:20:01;16.60;48.60
16532;DHT22;66872;63.142;14.482;2023-09-19T04:22:27;16.60;48.60
16532;DHT22;66872;63.142;14.482;2023-09-19T04:24:52;16.60;48.60
16532;DHT22;66872;63.142;14.482;2023-09-19T04:27:18;16.60;48.60
16532;DHT22;66872;63.142;14.482;2023-09-19T04:29:44;16.60;48.60
16532;DHT22;66872;63.142;14.482;2023-09-19T04:32:10;16.60;48.60
16532;DHT22;66872;63.142;14.482;2023-09-19T04:34:36;16.60;48.60
16532;DHT22;66872;63.142;14.482;2023-09-19T04:37:03;16.60;48.60
16532;DHT22;66872;63.142;14.482;2023-09-19T04:39:31;16.60;48.60
16532;DHT22;66872;63.142;14.482;2023-09-19T04:41:56;16.60;48.60
16532;DHT22;66872;63.142;14.482;2023-09-19T04:44:23;16.70;48.70
16532;DHT22;66872;63.142;14.482;2023-09-19T04:46:49;16.60;48.60
16532;DHT22;66872;63.142;14.482;2023-09-19T04:49:14;16.60;48.60
16532;DHT22;66872;63.142;14.482;2023-09-19T04:51:40;16.70;48.70
16532;DHT22;66872;63.142;14.482;2023-09-19T04:54:06;16.60;48.60
16532;DHT22;66872;63.142;14.482;2023-09-19T04:56:32;16.60;48.60
16532;DHT22;66872;63.142;14.482;2023-09-19T04:58:59;16.60;48.60
16532;DHT22;66872;63.142;14.482;2023-09-19T05:01:25;16.70;48.70
16532;DHT22;66872;63.142;14.482;2023-09-19T05:03:51;16.70;48.70
16532;DHT22;66872;63.142;14.482;2023-09-19T05:06:20;16.70;48.70
16532;DHT22;66872;63.142;14.482;2023-09-19T05:08:49;16.60;48.60
16532;DHT22;66872;63.142;14.482;2023-09-19T05:11:18;16.70;48.70
16532;DHT22;66872;63.142;14.482;2023-09-19T05:13:45;16.70;48.70
16532;DHT22;66872;63.142;14.482;2023-09-19T05:16:10;16.70;48.70
16532;DHT22;66872;63.142;14.482;2023-09-19T05:18:36;16.70;48.70
16532;DHT22;66872;63.142;14.482;2023-09-19T05:21:02;16.70;48.70
16532;DHT22;66872;63.142;14.482;2023-09-19T05:23:28;16.70;48.70
16532;DHT22;66872;63.142;14.482;2023-09-19T05:25:54;16.70;48.70
16532;DHT22;66872;63.142;14.482;2023-09-19T05:28:22;16.70;48.70
16532;DHT22;66872;63.142;14.482;2023-09-19T05:30:47;16.70;48.70
16532;DHT22;66872;63.142;14.482;2023-09-19T05:33:14;16.70;48.70
16532;DHT22;66872;63.142;14.482;2023-09-19T05:35:40;16.70;48.70
16532;DHT22;66872;63.142;14.482;2023-09-19T05:38:07;16.70;48.70
16532;DHT22;66872;63.142;14.482;2023-09-19T05:40:38;16.70;48.70
16532;DHT22;66872;63.142;14.482;2023-09-19T05:43:07;16.70;48.60
16532;DHT22;66872;63.142;14.482;2023-09-19T05:45:33;16.70;48.70
16532;DHT22;66872;63.142;14.482;2023-09-19T05:48:10;16.70;48.70
16532;DHT22;66872;63.142;14.482;2023-09-19T05:50:40;16.70;48.70
16532;DHT22;66872;63.142;14.482;2023-09-19T05:53:05;16.70;48.70
16532;DHT22;66872;63.142;14.482;2023-09-19T05:55:32;16.70;48.60
16532;DHT22;66872;63.142;14.482;2023-09-19T05:57:58;16.70;48.70
16532;DHT22;66872;63.142;14.482;2023-09-19T06:00:24;16.70;48.60
16532;DHT22;66872;63.142;14.482;2023-09-19T06:02:57;16.70;48.60
16532;DHT22;66872;63.142;14.482;2023-09-19T06:05:24;16.70;48.60
16532;DHT22;66872;63.142;14.482;2023-09-19T06:07:50;16.70;48.60
16532;DHT22;66872;63.142;14.482;2023-09-19T06:10:17;16.70;48.50
16532;DHT22;66872;63.142;14.482;2023-09-19T06:12:44;16.70;48.60
16532;DHT22;66872;63.142;14.482;2023-09-19T06:15:11;16.70;48.50
16532;DHT22;66872;63.142;14.482;2023-09-19T06:17:49;16.70;48.50
16532;DHT22;66872;63.142;14.482;2023-09-19T06:20:16;16.70;48.50
16532;DHT22;66872;63.142;14.482;2023-09-19T06:22:42;16.70;48.50
16532;DHT22;66872;63.142;14.482;2023-09-19T06:25:13;16.80;48.60
16532;DHT22;66872;63.142;14.482;2023-09-19T06:27:48;16.80;48.60
16532;DHT22;66872;63.142;14.482;2023-09-19T06:30:17;16.80;48.60
16532;DHT22;66872;63.142;14.482;2023-09-19T06:32:43;16.80;48.60
16532;DHT22;66872;63.142;14.482;2023-09-19T06:35:13;16.80;48.60
16532;DHT22;66872;63.142;14.482;2023-09-19T06:37:40;16.80;48.60
16532;DHT22;66872;63.142;14.482;2023-09-19T06:40:13;16.80;48.60
16532;DHT22;66872;63.142;14.482;2023-09-19T06:42:44;16.80;48.60
16532;DHT22;66872;63.142;14.482;2023-09-19T06:45:14;16.80;48.60
16532;DHT22;66872;63.142;14.482;2023-09-19T06:47:48;16.80;48.60
16532;DHT22;66872;63.142;14.482;2023-09-19T06:50:21;16.80;48.60
16532;DHT22;66872;63.142;14.482;2023-09-19T06:52:52;16.80;48.60
16532;DHT22;66872;63.142;14.482;2023-09-19T06:55:19;16.80;48.60
16532;DHT22;66872;63.142;14.482;2023-09-19T06:57:48;16.80;48.50
16532;DHT22;66872;63.142;14.482;2023-09-19T07:00:15;16.80;48.60
16532;DHT22;66872;63.142;14.482;2023-09-19T07:03:05;16.80;48.50
16532;DHT22;66872;63.142;14.482;2023-09-19T07:05:34;16.80;48.60
16532;DHT22;66872;63.142;14.482;2023-09-19T07:08:03;16.80;48.50
16532;DHT22;66872;63.142;14.482;2023-09-19T07:10:30;16.80;48.50
16532;DHT22;66872;63.142;14.482;2023-09-19T07:13:00;16.80;48.50
16532;DHT22;66872;63.142;14.482;2023-09-19T07:15:27;16.80;48.50
16532;DHT22;66872;63.142;14.482;2023-09-19T07:17:53;16.80;48.50
16532;DHT22;66872;63.142;14.482;2023-09-19T07:20:20;16.80;48.40
16532;DHT22;66872;63.142;14.482;2023-09-19T07:22:46;16.80;48.40
16532;DHT22;66872;63.142;14.482;2023-09-19T07:25:12;16.90;48.50
16532;DHT22;66872;63.142;14.482;2023-09-19T07:27:41;16.90;48.50
16532;DHT22;66872;63.142;14.482;2023-09-19T07:30:07;16.90;48.40
16532;DHT22;66872;63.142;14.482;2023-09-19T07:32:33;16.90;48.30
16532;DHT22;66872;63.142;14.482;2023-09-19T07:35:02;16.90;48.30
16532;DHT22;66872;63.142;14.482;2023-09-19T07:37:29;16.90;48.30
16532;DHT22;66872;63.142;14.482;2023-09-19T07:39:56;17.00;48.30
16532;DHT22;66872;63.142;14.482;2023-09-19T07:42:22;17.00;48.30
16532;DHT22;66872;63.142;14.482;2023-09-19T07:44:48;17.00;48.20
16532;DHT22;66872;63.142;14.482;2023-09-19T07:47:16;17.00;48.20
16532;DHT22;66872;63.142;14.482;2023-09-19T07:49:42;17.00;48.20
16532;DHT22;66872;63.142;14.482;2023-09-19T07:52:09;17.00;48.10
16532;DHT22;66872;63.142;14.482;2023-09-19T07:54:36;17.00;48.10
16532;DHT22;66872;63.142;14.482;2023-09-19T07:57:02;17.00;48.00
16532;DHT22;66872;63.142;14.482;2023-09-19T07:59:28;17.00;48.00
16532;DHT22;66872;63.142;14.482;2023-09-19T08:01:53;17.10;48.10
16532;DHT22;66872;63.142;14.482;2023-09-19T08:04:19;17.10;48.10
16532;DHT22;66872;63.142;14.482;2023-09-19T08:06:45;17.10;48.00
16532;DHT22;66872;63.142;14.482;2023-09-19T08:09:11;17.10;48.00
16532;DHT22;66872;63.142;14.482;2023-09-19T08:11:38;17.10;47.90
16532;DHT22;66872;63.142;14.482;2023-09-19T08:14:04;17.10;47.90
16532;DHT22;66872;63.142;14.482;2023-09-19T08:16:33;17.20;47.90
16532;DHT22;66872;63.142;14.482;2023-09-19T08:18:58;17.20;47.90
16532;DHT22;66872;63.142;14.482;2023-09-19T08:21:24;17.20;47.90
16532;DHT22;66872;63.142;14.482;2023-09-19T08:23:51;17.20;47.80
16532;DHT22;66872;63.142;14.482;2023-09-19T08:26:18;17.20;47.80
16532;DHT22;66872;63.142;14.482;2023-09-19T08:28:45;17.10;47.70
16532;DHT22;66872;63.142;14.482;2023-09-19T08:31:10;17.20;47.90
16532;DHT22;66872;63.142;14.482;2023-09-19T08:33:37;17.10;47.80
16532;DHT22;66872;63.142;14.482;2023-09-19T08:36:04;17.10;47.80
16532;DHT22;66872;63.142;14.482;2023-09-19T08:38:31;17.10;47.80
16532;DHT22;66872;63.142;14.482;2023-09-19T08:40:58;17.10;47.80
16532;DHT22;66872;63.142;14.482;2023-09-19T08:43:28;17.10;47.90
16532;DHT22;66872;63.142;14.482;2023-09-19T08:46:02;17.10;47.90
16532;DHT22;66872;63.142;14.482;2023-09-19T08:48:29;17.10;47.90
16532;DHT22;66872;63.142;14.482;2023-09-19T08:51:03;17.10;47.90
16532;DHT22;66872;63.142;14.482;2023-09-19T08:53:47;17.20;47.90
16532;DHT22;66872;63.142;14.482;2023-09-19T08:56:18;17.20;47.90
16532;DHT22;66872;63.142;14.482;2023-09-19T08:59:07;17.20;47.80
16532;DHT22;66872;63.142;14.482;2023-09-19T09:01:33;17.20;47.70
16532;DHT22;66872;63.142;14.482;2023-09-19T09:04:01;17.30;47.80
16532;DHT22;66872;63.142;14.482;2023-09-19T09:06:27;17.30;47.80
16532;DHT22;66872;63.142;14.482;2023-09-19T09:08:54;17.30;47.70
16532;DHT22;66872;63.142;14.482;2023-09-19T09:11:21;17.40;47.70
16532;DHT22;66872;63.142;14.482;2023-09-19T09:13:47;17.30;47.50
16532;DHT22;66872;63.142;14.482;2023-09-19T09:16:14;17.40;47.50
16532;DHT22;66872;63.142;14.482;2023-09-19T09:18:45;17.40;47.50
16532;DHT22;66872;63.142;14.482;2023-09-19T09:21:11;17.40;47.50
16532;DHT22;66872;63.142;14.482;2023-09-19T09:23:39;17.40;47.40
16532;DHT22;66872;63.142;14.482;2023-09-19T09:26:04;17.40;47.40
16532;DHT22;66872;63.142;14.482;2023-09-19T09:28:33;17.50;47.40
16532;DHT22;66872;63.142;14.482;2023-09-19T09:31:01;17.50;47.40
16532;DHT22;66872;63.142;14.482;2023-09-19T09:33:38;17.50;47.40
16532;DHT22;66872;63.142;14.482;2023-09-19T09:36:05;17.50;47.30
16532;DHT22;66872;63.142;14.482;2023-09-19T09:38:46;17.60;47.30
16532;DHT22;66872;63.142;14.482;2023-09-19T09:41:15;17.60;47.30
16532;DHT22;66872;63.142;14.482;2023-09-19T09:43:53;17.60;47.30
16532;DHT22;66872;63.142;14.482;2023-09-19T09:46:20;17.60;47.30
16532;DHT22;66872;63.142;14.482;2023-09-19T09:48:46;17.60;47.30
16532;DHT22;66872;63.142;14.482;2023-09-19T09:51:32;17.60;47.30
16532;DHT22;66872;63.142;14.482;2023-09-19T09:54:15;17.60;47.30
16532;DHT22;66872;63.142;14.482;2023-09-19T09:59:21;17.60;47.30
16532;DHT22;66872;63.142;14.482;2023-09-19T10:01:49;17.50;47.40
16532;DHT22;66872;63.142;14.482;2023-09-19T10:04:35;17.50;47.40
16532;DHT22;66872;63.142;14.482;2023-09-19T10:07:08;17.50;47.40
16532;DHT22;66872;63.142;14.482;2023-09-19T10:09:46;17.50;47.50
16532;DHT22;66872;63.142;14.482;2023-09-19T10:12:13;17.50;47.40
16532;DHT22;66872;63.142;14.482;2023-09-19T10:14:41;17.50;47.50
16532;DHT22;66872;63.142;14.482;2023-09-19T10:17:10;17.50;47.50
16532;DHT22;66872;63.142;14.482;2023-09-19T10:22:46;17.50;47.50
16532;DHT22;66872;63.142;14.482;2023-09-19T10:25:27;17.50;47.60
16532;DHT22;66872;63.142;14.482;2023-09-19T10:28:00;17.50;47.70
16532;DHT22;66872;63.142;14.482;2023-09-19T10:30:31;17.50;47.70
16532;DHT22;66872;63.142;14.482;2023-09-19T10:33:01;17.50;47.80
16532;DHT22;66872;63.142;14.482;2023-09-19T10:35:28;17.40;47.70
16532;DHT22;66872;63.142;14.482;2023-09-19T10:37:59;17.40;47.70
16532;DHT22;66872;63.142;14.482;2023-09-19T10:40:27;17.40;47.70
16532;DHT22;66872;63.142;14.482;2023-09-19T10:43:05;17.40;47.80
16532;DHT22;66872;63.142;14.482;2023-09-19T10:45:32;17.40;47.80
16532;DHT22;66872;63.142;14.482;2023-09-19T10:47:59;17.40;47.90
16532;DHT22;66872;63.142;14.482;2023-09-19T10:50:27;17.40;47.90
16532;DHT22;66872;63.142;14.482;2023-09-19T10:53:00;17.40;48.00
16532;DHT22;66872;63.142;14.482;2023-09-19T10:55:31;17.40;48.00
16532;DHT22;66872;63.142;14.482;2023-09-19T10:57:58;17.40;48.10
16532;DHT22;66872;63.142;14.482;2023-09-19T11:00:59;17.40;48.10
16532;DHT22;66872;63.142;14.482;2023-09-19T11:03:31;17.40;48.10
16532;DHT22;66872;63.142;14.482;2023-09-19T11:06:14;17.40;48.00
16532;DHT22;66872;63.142;14.482;2023-09-19T11:11:47;17.60;47.80
16532;DHT22;66872;63.142;14.482;2023-09-19T11:30:42;17.80;47.90
16532;DHT22;66872;63.142;14.482;2023-09-19T11:33:30;17.90;48.10
16532;DHT22;66872;63.142;14.482;2023-09-19T11:36:09;17.90;48.20
16532;DHT22;66872;63.142;14.482;2023-09-19T11:49:26;18.00;48.10
16532;DHT22;66872;63.142;14.482;2023-09-19T11:51:56;18.00;48.00
16532;DHT22;66872;63.142;14.482;2023-09-19T11:54:21;18.00;48.10
16532;DHT22;66872;63.142;14.482;2023-09-19T11:56:52;18.00;48.10
16532;DHT22;66872;63.142;14.482;2023-09-19T11:59:29;18.00;48.10
16532;DHT22;66872;63.142;14.482;2023-09-19T12:04:38;17.90;48.10
16532;DHT22;66872;63.142;14.482;2023-09-19T12:07:11;18.00;48.10
16532;DHT22;66872;63.142;14.482;2023-09-19T12:09:41;18.00;48.10
16532;DHT22;66872;63.142;14.482;2023-09-19T12:14:49;18.00;48.10
16532;DHT22;66872;63.142;14.482;2023-09-19T12:17:15;17.90;48.10
16532;DHT22;66872;63.142;14.482;2023-09-19T12:19:53;17.90;48.10
16532;DHT22;66872;63.142;14.482;2023-09-19T12:22:19;17.90;48.10
16532;DHT22;66872;63.142;14.482;2023-09-19T12:24:46;17.90;48.20
16532;DHT22;66872;63.142;14.482;2023-09-19T12:27:12;17.80;48.10
16532;DHT22;66872;63.142;14.482;2023-09-19T12:29:46;17.80;48.20
16532;DHT22;66872;63.142;14.482;2023-09-19T12:32:14;17.80;48.30
16532;DHT22;66872;63.142;14.482;2023-09-19T12:34:42;17.70;48.30
16532;DHT22;66872;63.142;14.482;2023-09-19T12:37:13;17.70;48.40
16532;DHT22;66872;63.142;14.482;2023-09-19T12:39:48;17.70;48.50
16532;DHT22;66872;63.142;14.482;2023-09-19T12:42:15;17.70;48.50
16532;DHT22;66872;63.142;14.482;2023-09-19T12:44:44;17.70;48.60
16532;DHT22;66872;63.142;14.482;2023-09-19T12:47:18;17.60;48.50
16532;DHT22;66872;63.142;14.482;2023-09-19T12:55:26;17.60;48.70
16532;DHT22;66872;63.142;14.482;2023-09-19T12:58:12;17.60;48.80
16532;DHT22;66872;63.142;14.482;2023-09-19T13:00:41;17.60;48.80
16532;DHT22;66872;63.142;14.482;2023-09-19T13:03:26;17.50;48.80
16532;DHT22;66872;63.142;14.482;2023-09-19T13:05:55;17.50;48.90
16532;DHT22;66872;63.142;14.482;2023-09-19T13:08:37;17.50;48.90
16532;DHT22;66872;63.142;14.482;2023-09-19T13:11:16;17.50;49.00
16532;DHT22;66872;63.142;14.482;2023-09-19T13:14:12;17.50;49.00
16532;DHT22;66872;63.142;14.482;2023-09-19T13:19:44;17.40;49.10
16532;DHT22;66872;63.142;14.482;2023-09-19T13:22:43;17.40;49.10
16532;DHT22;66872;63.142;14.482;2023-09-19T13:25:13;17.40;49.10
16532;DHT22;66872;63.142;14.482;2023-09-19T13:27:51;17.40;49.20
16532;DHT22;66872;63.142;14.482;2023-09-19T13:30:18;17.40;49.20
16532;DHT22;66872;63.142;14.482;2023-09-19T13:32:44;17.40;49.20
16532;DHT22;66872;63.142;14.482;2023-09-19T13:35:13;17.40;49.20
16532;DHT22;66872;63.142;14.482;2023-09-19T13:37:39;17.40;49.10
16532;DHT22;66872;63.142;14.482;2023-09-19T13:40:13;17.40;49.10
16532;DHT22;66872;63.142;14.482;2023-09-19T13:42:39;17.40;49.10
16532;DHT22;66872;63.142;14.482;2023-09-19T13:45:06;17.40;49.10
16532;DHT22;66872;63.142;14.482;2023-09-19T13:47:37;17.40;49.10
16532;DHT22;66872;63.142;14.482;2023-09-19T13:50:04;17.40;49.10
16532;DHT22;66872;63.142;14.482;2023-09-19T13:52:32;17.40;49.10
16532;DHT22;66872;63.142;14.482;2023-09-19T13:54:59;17.40;49.10
16532;DHT22;66872;63.142;14.482;2023-09-19T13:57:25;17.40;49.10
16532;DHT22;66872;63.142;14.482;2023-09-19T13:59:52;17.40;49.10
16532;DHT22;66872;63.142;14.482;2023-09-19T14:02:20;17.40;49.10
16532;DHT22;66872;63.142;14.482;2023-09-19T14:04:48;17.40;49.10
16532;DHT22;66872;63.142;14.482;2023-09-19T14:07:15;17.50;49.10
16532;DHT22;66872;63.142;14.482;2023-09-19T14:09:41;17.50;49.10
16532;DHT22;66872;63.142;14.482;2023-09-19T14:12:06;17.40;49.00
16532;DHT22;66872;63.142;14.482;2023-09-19T14:14:32;17.40;49.00
16532;DHT22;66872;63.142;14.482;2023-09-19T14:16:58;17.40;49.00
16532;DHT22;66872;63.142;14.482;2023-09-19T14:19:27;17.50;49.10
16532;DHT22;66872;63.142;14.482;2023-09-19T14:21:52;17.50;49.00
16532;DHT22;66872;63.142;14.482;2023-09-19T14:24:21;17.50;49.00
16532;DHT22;66872;63.142;14.482;2023-09-19T14:26:47;17.50;49.00
16532;DHT22;66872;63.142;14.482;2023-09-19T14:29:13;17.50;49.00
16532;DHT22;66872;63.142;14.482;2023-09-19T14:31:39;17.50;48.90
16532;DHT22;66872;63.142;14.482;2023-09-19T14:34:06;17.50;48.90
16532;DHT22;66872;63.142;14.482;2023-09-19T14:36:32;17.60;48.90
16532;DHT22;66872;63.142;14.482;2023-09-19T14:38:58;17.50;48.80
16532;DHT22;66872;63.142;14.482;2023-09-19T14:41:24;17.50;48.80
16532;DHT22;66872;63.142;14.482;2023-09-19T14:43:54;17.60;48.80
16532;DHT22;66872;63.142;14.482;2023-09-19T14:46:21;17.60;48.80
16532;DHT22;66872;63.142;14.482;2023-09-19T14:48:46;17.60;48.80
16532;DHT22;66872;63.142;14.482;2023-09-19T14:51:13;17.60;48.70
16532;DHT22;66872;63.142;14.482;2023-09-19T14:53:39;17.60;48.70
16532;DHT22;66872;63.142;14.482;2023-09-19T14:56:08;17.60;48.80
16532;DHT22;66872;63.142;14.482;2023-09-19T14:58:35;17.60;48.80
16532;DHT22;66872;63.142;14.482;2023-09-19T15:03:29;17.60;48.70
16532;DHT22;66872;63.142;14.482;2023-09-19T15:06:03;17.60;48.70
16532;DHT22;66872;63.142;14.482;2023-09-19T15:08:33;17.60;48.70
16532;DHT22;66872;63.142;14.482;2023-09-19T15:11:09;17.60;48.70
16532;DHT22;66872;63.142;14.482;2023-09-19T15:13:36;17.60;48.60
16532;DHT22;66872;63.142;14.482;2023-09-19T15:16:03;17.60;48.60
16532;DHT22;66872;63.142;14.482;2023-09-19T15:18:30;17.60;48.70
16532;DHT22;66872;63.142;14.482;2023-09-19T15:20:56;17.60;48.60
16532;DHT22;66872;63.142;14.482;2023-09-19T15:23:23;17.60;48.60
16532;DHT22;66872;63.142;14.482;2023-09-19T15:25:49;17.60;48.70
16532;DHT22;66872;63.142;14.482;2023-09-19T15:28:15;17.60;48.70
16532;DHT22;66872;63.142;14.482;2023-09-19T15:30:41;17.60;48.70
16532;DHT22;66872;63.142;14.482;2023-09-19T15:33:06;17.60;48.70
16532;DHT22;66872;63.142;14.482;2023-09-19T15:35:32;17.60;48.80
16532;DHT22;66872;63.142;14.482;2023-09-19T15:37:58;17.60;48.80
16532;DHT22;66872;63.142;14.482;2023-09-19T15:40:26;17.60;48.80
16532;DHT22;66872;63.142;14.482;2023-09-19T15:42:54;17.60;48.70
16532;DHT22;66872;63.142;14.482;2023-09-19T15:45:19;17.60;48.80
16532;DHT22;66872;63.142;14.482;2023-09-19T15:47:45;17.60;48.80
16532;DHT22;66872;63.142;14.482;2023-09-19T15:50:11;17.60;48.70
16532;DHT22;66872;63.142;14.482;2023-09-19T15:52:39;17.60;48.70
16532;DHT22;66872;63.142;14.482;2023-09-19T15:55:06;17.60;48.80
16532;DHT22;66872;63.142;14.482;2023-09-19T15:57:33;17.60;48.80
16532;DHT22;66872;63.142;14.482;2023-09-19T15:59:59;17.60;48.80
16532;DHT22;66872;63.142;14.482;2023-09-19T16:02:25;17.50;48.70
16532;DHT22;66872;63.142;14.482;2023-09-19T16:04:54;17.50;48.70
16532;DHT22;66872;63.142;14.482;2023-09-19T16:07:19;17.50;48.80
16532;DHT22;66872;63.142;14.482;2023-09-19T16:09:45;17.50;48.80
16532;DHT22;66872;63.142;14.482;2023-09-19T16:12:11;17.50;48.80
16532;DHT22;66872;63.142;14.482;2023-09-19T16:14:39;17.50;48.90
16532;DHT22;66872;63.142;14.482;2023-09-19T16:17:05;17.50;48.90
16532;DHT22;66872;63.142;14.482;2023-09-19T16:19:32;17.50;48.90
16532;DHT22;66872;63.142;14.482;2023-09-19T16:21:58;17.50;48.90
16532;DHT22;66872;63.142;14.482;2023-09-19T16:24:25;17.40;48.90
16532;DHT22;66872;63.142;14.482;2023-09-19T16:26:51;17.40;48.90
16532;DHT22;66872;63.142;14.482;2023-09-19T16:29:18;17.40;48.90